Hauptseite
METAR-TAF:

METAR-TAF

Flughäfen :

Flughafen Kiel

Kiel, Deutschland

Breite: 54-23N, Länge: 010-10E, Höhe: 31 m

Beobachtung

Neuester Wetterbericht von vor 21 Minuten, um 14:50 UTC
Wind 8 kt aus West/Südwest
Temperatur 4°C
Luftfeuchtigkeit 100%
Luftdruck 1018 hPa
Sichtweite: 2500 m
Durchbrochene Bewölkung in der Höhe von 200 ft
Sprühregen leicht, feuchter Dunst

METAR: EDHK 241450Z 24008KT 2500 -DZ BR BKN002 04/04 Q1018

Zeit: 16:11 (15:11 UTC)

Prognose

Neuester Wetterbericht von vor 1 Stunde und 11 Minuten, um 14:00 UTC
Gültige Prognose vom 24 um 15 UTC bis 24 um 18 UTC
Wind 9 kt aus West/Südwest
Sichtweite: 4000 m
Geschlossene Wolkendecke in der Höhe von 300 ft
feuchter Dunst
Zeitweise
vom 24 um 15 UTC bis 24 um 18 UTC
Sichtweite: 2000 m
Sprühregen leicht

TAF: EDHK 241400Z 2415/2418 24009KT 4000 BR OVC003 TEMPO 2415/2418 2000 -DZ

Wetterbeobachtungen und Prognosen von mehr als 4000 Flughäfen (METAR und TAF Bericht).

Die verfügbaren Stationen werden durch gelbe und rote Markierungen auf der Karte dargestellt.

Führen Sie die Maus auf sie, um den Namen der Station zu sehen.

Darauf klicken, um die Beobachtung von Wetterbeobachtungen und Prognosen zu sehen.

Um die Karte zu ändern : klicken Sie auf den grünen Tasten mit einem schwarzen Kreuz Zum Vergrößern, auf den grünen Button mit einem Gedankenstrich zu verkleinern, oder auf die grünen Pfeile für benachbarte Karten.


METAR-TAF: